createdAt,value
2018-01-13T00:02:23.771Z,3.56
2018-01-13T00:04:51.772Z,3.50
2018-01-13T00:07:19.494Z,3.48
2018-01-13T00:09:47.130Z,3.53
2018-01-13T00:12:14.756Z,3.48
2018-01-13T00:14:42.392Z,3.45
2018-01-13T00:17:10.269Z,3.37
2018-01-13T00:19:37.900Z,3.31
2018-01-13T00:22:05.672Z,3.41
2018-01-13T00:24:33.307Z,3.51
2018-01-13T00:27:01.021Z,3.48
2018-01-13T00:29:28.754Z,3.43
2018-01-13T00:31:56.400Z,3.37
2018-01-13T00:34:24.202Z,3.44
2018-01-13T00:36:51.849Z,3.51
2018-01-13T00:39:19.475Z,3.50
2018-01-13T00:41:47.204Z,3.54
2018-01-13T00:44:14.834Z,3.48
2018-01-13T00:46:42.450Z,3.45
2018-01-13T00:49:10.226Z,3.45
2018-01-13T00:51:38.017Z,3.44
2018-01-13T00:54:05.684Z,3.47
2018-01-13T00:56:33.317Z,3.50
2018-01-13T00:59:01.162Z,3.47
2018-01-13T01:01:28.792Z,3.48
2018-01-13T01:03:56.424Z,3.45
2018-01-13T01:06:24.086Z,3.42
2018-01-13T01:08:52.066Z,3.41
2018-01-13T01:11:19.703Z,3.41
2018-01-13T01:13:47.306Z,3.39
2018-01-13T01:16:14.953Z,3.42
2018-01-13T01:18:42.609Z,3.68
2018-01-13T01:21:10.227Z,3.58
2018-01-13T01:23:37.868Z,3.52
2018-01-13T01:26:05.528Z,3.68
2018-01-13T01:28:33.216Z,3.61
2018-01-13T01:31:00.853Z,3.60
2018-01-13T01:33:28.566Z,3.81
2018-01-13T01:35:56.216Z,3.70
2018-01-13T01:38:23.829Z,3.77
2018-01-13T01:40:51.459Z,3.85
2018-01-13T01:43:19.096Z,3.75
2018-01-13T01:45:47.564Z,3.78
2018-01-13T01:48:26.238Z,3.83
2018-01-13T01:50:53.942Z,3.82
2018-01-13T01:53:21.556Z,3.80
2018-01-13T01:55:49.190Z,3.78
2018-01-13T01:58:16.854Z,3.92
2018-01-13T02:00:44.571Z,3.96
2018-01-13T02:03:12.207Z,4.01
2018-01-13T02:05:39.831Z,4.00
2018-01-13T02:08:07.452Z,3.97
2018-01-13T02:10:35.081Z,3.95
2018-01-13T02:13:02.732Z,3.90
2018-01-13T02:15:30.354Z,3.87
2018-01-13T02:17:57.961Z,3.98
2018-01-13T02:20:25.709Z,3.97
2018-01-13T02:22:53.312Z,3.88
2018-01-13T02:25:21.052Z,3.84
2018-01-13T02:27:48.663Z,3.86
2018-01-13T02:30:16.286Z,4.01
2018-01-13T02:32:44.073Z,3.89
2018-01-13T02:35:11.789Z,4.02
2018-01-13T02:37:39.408Z,3.92
2018-01-13T02:40:07.062Z,3.88
2018-01-13T02:42:34.791Z,3.84
2018-01-13T02:45:02.415Z,3.77
2018-01-13T02:47:30.121Z,3.73
2018-01-13T02:49:57.742Z,3.69
2018-01-13T02:52:25.362Z,3.64
2018-01-13T02:54:52.978Z,3.67
2018-01-13T02:57:20.607Z,3.74
2018-01-13T02:59:48.239Z,3.73
2018-01-13T03:02:15.869Z,3.68
2018-01-13T03:04:43.537Z,3.77
2018-01-13T03:07:11.202Z,3.75
2018-01-13T03:09:38.868Z,3.93
2018-01-13T03:12:06.473Z,3.77
2018-01-13T03:14:34.086Z,3.74
2018-01-13T03:17:01.723Z,3.69
2018-01-13T03:19:29.412Z,3.70
2018-01-13T03:21:57.039Z,3.66
2018-01-13T03:24:24.746Z,3.64
2018-01-13T03:26:52.519Z,3.65
2018-01-13T03:29:20.145Z,3.61
2018-01-13T03:31:47.872Z,3.60
2018-01-13T03:34:15.567Z,3.68
2018-01-13T03:36:43.187Z,3.65
2018-01-13T03:39:10.852Z,3.69
2018-01-13T03:41:38.758Z,3.60
2018-01-13T03:44:06.383Z,3.65
2018-01-13T03:46:34.039Z,3.78
2018-01-13T03:49:01.887Z,3.69
2018-01-13T03:51:29.549Z,3.69
2018-01-13T03:53:57.152Z,3.70
2018-01-13T03:56:24.937Z,3.64
2018-01-13T03:58:52.568Z,3.60
2018-01-13T04:01:20.279Z,3.69
2018-01-13T04:03:47.913Z,3.73
2018-01-13T04:06:15.547Z,3.61
2018-01-13T04:08:43.194Z,3.60
2018-01-13T04:11:10.835Z,3.60
2018-01-13T04:13:38.459Z,3.60
2018-01-13T04:16:06.132Z,3.58
2018-01-13T04:18:33.858Z,3.61
2018-01-13T04:21:01.500Z,3.57
2018-01-13T04:23:29.098Z,3.53
2018-01-13T04:25:56.708Z,3.60
2018-01-13T04:28:24.482Z,3.56
2018-01-13T04:30:52.102Z,3.59
2018-01-13T04:33:19.719Z,3.57
2018-01-13T04:35:47.332Z,3.56
2018-01-13T04:38:14.949Z,3.54
2018-01-13T04:40:42.706Z,3.53
2018-01-13T04:43:10.344Z,3.53
2018-01-13T04:45:37.981Z,3.52
2018-01-13T04:48:05.668Z,3.50
2018-01-13T04:50:33.457Z,3.54
2018-01-13T04:53:01.253Z,3.51
2018-01-13T04:55:28.897Z,3.53
2018-01-13T04:57:56.518Z,3.47
2018-01-13T05:00:24.162Z,3.50
2018-01-13T05:02:51.805Z,3.44
2018-01-13T05:05:19.503Z,3.48
2018-01-13T05:07:47.123Z,3.47
2018-01-13T05:10:14.769Z,3.58
2018-01-13T05:12:42.403Z,3.70
2018-01-13T05:15:10.044Z,3.63
2018-01-13T05:17:37.673Z,3.60
2018-01-13T05:20:05.303Z,3.69
2018-01-13T05:22:32.949Z,3.65
2018-01-13T05:25:00.602Z,3.60
2018-01-13T05:27:28.209Z,3.65
2018-01-13T05:29:55.832Z,3.54
2018-01-13T05:32:23.482Z,3.49
2018-01-13T05:34:51.099Z,3.38
2018-01-13T05:37:18.709Z,3.43
2018-01-13T05:39:46.339Z,3.48
2018-01-13T05:42:13.965Z,3.62
2018-01-13T05:44:41.565Z,3.54
2018-01-13T05:47:09.248Z,3.36
2018-01-13T05:49:36.897Z,3.35
2018-01-13T05:52:04.581Z,3.39
2018-01-13T05:54:32.229Z,3.46
2018-01-13T05:56:59.857Z,3.43
2018-01-13T05:59:27.522Z,3.45
2018-01-13T06:01:55.123Z,3.48
2018-01-13T06:04:22.788Z,3.29
2018-01-13T06:06:50.419Z,3.33
2018-01-13T06:09:18.058Z,3.35
2018-01-13T06:11:45.839Z,3.45
2018-01-13T06:14:13.459Z,3.50
2018-01-13T06:16:41.200Z,3.41
2018-01-13T06:19:08.964Z,3.41
2018-01-13T06:21:36.570Z,3.40
2018-01-13T06:24:04.216Z,3.38
2018-01-13T06:26:31.824Z,3.25
2018-01-13T06:28:59.458Z,3.17
2018-01-13T06:31:27.067Z,3.16
2018-01-13T06:33:54.695Z,3.17
2018-01-13T06:36:22.849Z,3.16
2018-01-13T06:38:50.629Z,3.14
2018-01-13T06:41:18.312Z,3.12
2018-01-13T06:43:45.945Z,3.21
2018-01-13T06:46:13.602Z,3.29
2018-01-13T06:48:41.303Z,3.31
2018-01-13T06:51:08.974Z,3.31
2018-01-13T06:53:36.597Z,3.33
2018-01-13T06:56:04.229Z,3.35
2018-01-13T06:58:31.839Z,3.32
2018-01-13T07:00:59.552Z,3.33
2018-01-13T07:03:27.199Z,3.37
2018-01-13T07:05:54.919Z,3.42
2018-01-13T07:08:22.519Z,3.29
2018-01-13T07:10:50.240Z,3.25
2018-01-13T07:13:17.890Z,3.42
2018-01-13T07:15:45.624Z,3.44
2018-01-13T07:18:13.267Z,3.43
2018-01-13T07:20:40.913Z,3.32
2018-01-13T07:23:08.555Z,3.24
2018-01-13T07:25:36.191Z,3.24
2018-01-13T07:28:03.809Z,3.29
2018-01-13T07:30:31.448Z,3.34
2018-01-13T07:32:59.258Z,3.40
2018-01-13T07:35:26.897Z,3.50
2018-01-13T07:37:54.529Z,3.33
2018-01-13T07:40:22.173Z,3.31
2018-01-13T07:42:49.899Z,3.28
2018-01-13T07:45:17.523Z,3.35
2018-01-13T07:47:45.171Z,3.37
2018-01-13T07:50:12.828Z,3.44
2018-01-13T07:52:40.506Z,3.48
2018-01-13T07:55:08.141Z,3.55
2018-01-13T07:57:35.929Z,3.49
2018-01-13T08:00:03.580Z,3.45
2018-01-13T08:02:31.313Z,3.41
2018-01-13T08:04:58.929Z,3.43
2018-01-13T08:07:26.620Z,3.70
2018-01-13T08:09:54.596Z,3.54
2018-01-13T08:12:22.404Z,3.51
2018-01-13T08:14:50.077Z,3.57
2018-01-13T08:17:19.745Z,3.55
2018-01-13T08:19:47.386Z,3.56
2018-01-13T08:22:15.029Z,3.54
2018-01-13T08:24:42.748Z,3.53
2018-01-13T08:27:10.373Z,3.52
2018-01-13T08:29:38.294Z,3.71
2018-01-13T08:32:05.930Z,3.74
2018-01-13T08:34:33.558Z,3.79
2018-01-13T08:37:01.178Z,3.60
2018-01-13T08:39:28.807Z,3.71
2018-01-13T08:41:56.417Z,3.83
2018-01-13T08:44:24.033Z,3.73
2018-01-13T08:46:51.653Z,3.74
2018-01-13T08:49:19.274Z,3.74
2018-01-13T08:51:46.998Z,3.75
2018-01-13T08:54:14.602Z,3.75
2018-01-13T08:56:42.224Z,4.01
2018-01-13T08:59:09.875Z,3.81
2018-01-13T09:04:44.254Z,3.82
2018-01-13T09:07:11.979Z,3.94
2018-01-13T09:09:39.739Z,3.90
2018-01-13T09:12:07.404Z,3.84
2018-01-13T09:14:35.038Z,3.95
2018-01-13T09:17:02.671Z,3.93
2018-01-13T09:19:30.460Z,3.83
2018-01-13T09:21:58.275Z,3.88
2018-01-13T09:24:25.880Z,3.85
2018-01-13T09:26:53.514Z,3.92
2018-01-13T09:29:21.209Z,3.89
2018-01-13T09:31:48.849Z,3.85
2018-01-13T09:34:16.505Z,3.86
2018-01-13T09:36:44.336Z,3.99
2018-01-13T09:39:11.975Z,4.10
2018-01-13T09:41:39.606Z,3.96
2018-01-13T09:44:07.234Z,3.91
2018-01-13T09:46:34.957Z,4.02
2018-01-13T09:49:02.594Z,3.92
2018-01-13T09:51:30.309Z,3.90
2018-01-13T09:53:58.014Z,3.88
2018-01-13T09:56:25.658Z,3.90
2018-01-13T09:58:53.345Z,3.96
2018-01-13T10:01:20.986Z,4.07
2018-01-13T10:03:48.607Z,4.14
2018-01-13T10:06:16.239Z,4.04
2018-01-13T10:08:44.148Z,4.05
2018-01-13T10:11:11.845Z,4.11
2018-01-13T10:13:39.563Z,4.15
2018-01-13T10:16:07.231Z,4.22
2018-01-13T10:18:34.839Z,4.18
2018-01-13T10:21:02.625Z,4.14
2018-01-13T10:23:30.248Z,4.17
2018-01-13T10:25:57.974Z,4.21
2018-01-13T10:28:25.648Z,4.20
2018-01-13T10:30:53.255Z,4.18
2018-01-13T10:33:21.008Z,4.21
2018-01-13T10:35:48.737Z,4.41
2018-01-13T10:38:16.365Z,4.35
2018-01-13T10:40:44.034Z,4.24
2018-01-13T10:43:11.715Z,4.27
2018-01-13T10:45:39.493Z,4.19
2018-01-13T10:48:07.183Z,4.21
2018-01-13T10:50:34.815Z,4.28
2018-01-13T10:53:02.485Z,4.33
2018-01-13T10:55:30.118Z,4.42
2018-01-13T10:57:57.785Z,4.58
2018-01-13T11:00:25.459Z,4.53
2018-01-13T11:02:53.138Z,4.53
2018-01-13T11:05:20.744Z,4.59
2018-01-13T11:07:48.644Z,4.68
2018-01-13T11:10:16.274Z,4.60
2018-01-13T11:12:43.953Z,4.73
2018-01-13T11:15:11.619Z,4.62
2018-01-13T11:17:39.380Z,4.56
2018-01-13T11:20:06.998Z,4.63
2018-01-13T11:22:34.634Z,4.61
2018-01-13T11:25:02.275Z,4.52
2018-01-13T11:27:29.921Z,4.53
2018-01-13T11:29:57.606Z,4.62
2018-01-13T11:32:25.454Z,4.58
2018-01-13T11:34:53.158Z,4.55
2018-01-13T11:37:20.785Z,4.57
2018-01-13T11:39:48.659Z,4.56
2018-01-13T11:42:16.429Z,4.76
2018-01-13T11:44:44.165Z,4.64
2018-01-13T11:47:11.980Z,4.69
2018-01-13T11:49:39.624Z,4.61
2018-01-13T11:52:07.280Z,4.54
2018-01-13T11:54:34.910Z,4.52
2018-01-13T11:57:02.555Z,4.66
2018-01-13T11:59:30.290Z,4.55
2018-01-13T12:01:57.908Z,4.51
2018-01-13T12:04:25.730Z,4.53
2018-01-13T12:06:53.371Z,4.55
2018-01-13T12:09:21.019Z,4.46
2018-01-13T12:11:48.821Z,4.46
2018-01-13T12:14:16.436Z,4.46
2018-01-13T12:16:44.080Z,4.50
2018-01-13T12:19:11.696Z,4.46
2018-01-13T12:21:39.342Z,4.47
2018-01-13T12:24:06.966Z,4.57
2018-01-13T12:26:34.594Z,4.50
2018-01-13T12:29:02.241Z,4.46
2018-01-13T12:31:29.874Z,4.48
2018-01-13T12:33:57.545Z,4.48
2018-01-13T12:36:25.156Z,4.45
2018-01-13T12:38:52.862Z,4.44
2018-01-13T12:41:20.606Z,4.51
2018-01-13T12:43:48.231Z,4.55
2018-01-13T12:46:15.874Z,4.61
2018-01-13T12:48:43.584Z,4.59
2018-01-13T12:51:11.369Z,4.53
2018-01-13T12:53:39.058Z,4.61
2018-01-13T12:56:06.911Z,4.52
2018-01-13T12:58:34.564Z,4.53
2018-01-13T13:01:02.290Z,4.59
2018-01-13T13:03:29.935Z,4.53
2018-01-13T13:05:57.596Z,4.50
2018-01-13T13:08:25.271Z,4.50
2018-01-13T13:10:52.976Z,4.51
2018-01-13T13:13:20.736Z,4.54
2018-01-13T13:15:48.365Z,4.51
2018-01-13T13:18:16.006Z,4.53
2018-01-13T13:20:43.704Z,4.49
2018-01-13T13:23:11.457Z,4.54
2018-01-13T13:25:39.230Z,4.47
2018-01-13T13:28:06.930Z,4.43
2018-01-13T13:30:34.819Z,4.72
2018-01-13T13:33:02.570Z,4.58
2018-01-13T13:35:30.200Z,4.52
2018-01-13T13:37:57.947Z,4.45
2018-01-13T13:40:25.610Z,4.69
2018-01-13T13:42:53.239Z,4.52
2018-01-13T13:45:20.860Z,4.45
2018-01-13T13:47:48.758Z,4.62
2018-01-13T13:50:16.433Z,4.48
2018-01-13T13:52:44.094Z,4.54
2018-01-13T13:55:11.817Z,4.53
2018-01-13T13:57:39.455Z,4.57
2018-01-13T14:00:07.265Z,4.58
2018-01-13T14:02:34.936Z,4.67
2018-01-13T14:05:02.725Z,4.59
2018-01-13T14:07:30.530Z,4.66
2018-01-13T14:10:01.147Z,4.59
2018-01-13T14:12:26.072Z,4.50
2018-01-13T14:14:53.820Z,4.51
2018-01-13T14:17:21.602Z,4.62
2018-01-13T14:19:49.361Z,4.58
2018-01-13T14:22:17.052Z,4.55
2018-01-13T14:24:44.696Z,4.49
2018-01-13T14:27:12.340Z,4.56
2018-01-13T14:29:40.071Z,4.71
2018-01-13T14:32:07.790Z,4.54
2018-01-13T14:34:35.426Z,4.73
2018-01-13T14:37:03.156Z,4.52
2018-01-13T14:39:30.809Z,4.57
2018-01-13T14:41:58.430Z,4.56
2018-01-13T14:44:26.172Z,4.52
2018-01-13T14:46:53.900Z,4.49
2018-01-13T14:49:21.560Z,4.50
2018-01-13T14:51:49.180Z,4.46
2018-01-13T14:54:16.834Z,4.49
2018-01-13T14:56:44.454Z,4.43
2018-01-13T14:59:12.265Z,4.67
2018-01-13T15:01:40.008Z,4.75
2018-01-13T15:04:07.645Z,4.53
2018-01-13T15:06:35.289Z,4.55
2018-01-13T15:09:03.105Z,4.45
2018-01-13T15:11:30.723Z,4.40
2018-01-13T15:13:58.381Z,4.41
2018-01-13T15:16:26.121Z,4.50
2018-01-13T15:18:53.759Z,4.43
2018-01-13T15:21:21.421Z,4.44
2018-01-13T15:23:49.186Z,4.35
2018-01-13T15:26:16.900Z,4.57
2018-01-13T15:28:44.585Z,4.47
2018-01-13T15:31:12.265Z,4.70
2018-01-13T15:33:39.891Z,4.62
2018-01-13T15:36:07.536Z,4.40
2018-01-13T15:38:35.209Z,4.44
2018-01-13T15:41:02.820Z,4.40
2018-01-13T15:43:30.579Z,4.35
2018-01-13T15:45:58.215Z,4.34
2018-01-13T15:48:25.841Z,4.42
2018-01-13T15:50:53.483Z,4.47
2018-01-13T15:53:21.109Z,4.37
2018-01-13T15:55:48.837Z,4.49
2018-01-13T15:58:16.624Z,4.49
2018-01-13T16:00:44.270Z,4.43
2018-01-13T16:03:11.899Z,4.38
2018-01-13T16:05:39.602Z,4.33
2018-01-13T16:08:07.256Z,4.41
2018-01-13T16:10:34.895Z,4.31
2018-01-13T16:13:02.694Z,4.32
2018-01-13T16:15:30.340Z,4.71
2018-01-13T16:17:58.046Z,4.40
2018-01-13T16:20:25.695Z,4.51
2018-01-13T16:22:54.255Z,4.32
2018-01-13T16:25:21.900Z,4.30
2018-01-13T16:27:49.536Z,4.25
2018-01-13T16:30:17.209Z,4.36
2018-01-13T16:32:44.899Z,4.29
2018-01-13T16:35:12.691Z,4.62
2018-01-13T16:37:40.462Z,4.51
2018-01-13T16:40:08.105Z,4.42
2018-01-13T16:42:35.730Z,4.37
2018-01-13T16:45:03.374Z,4.32
2018-01-13T16:47:31.002Z,4.26
2018-01-13T16:49:58.675Z,4.28
2018-01-13T16:52:26.325Z,4.28
2018-01-13T16:54:53.977Z,4.26
2018-01-13T16:57:21.584Z,4.23
2018-01-13T16:59:49.256Z,4.52
2018-01-13T17:02:16.924Z,4.46
2018-01-13T17:04:44.559Z,4.49
2018-01-13T17:07:12.338Z,4.32
2018-01-13T17:09:39.989Z,4.26
2018-01-13T17:12:07.630Z,4.31
2018-01-13T17:14:35.271Z,4.22
2018-01-13T17:17:02.916Z,4.22
2018-01-13T17:19:30.604Z,4.40
2018-01-13T17:21:58.332Z,4.40
2018-01-13T17:24:25.949Z,4.30
2018-01-13T17:26:53.721Z,4.27
2018-01-13T17:29:21.449Z,4.21
2018-01-13T17:31:49.091Z,4.28
2018-01-13T17:34:16.729Z,4.27
2018-01-13T17:36:44.366Z,4.31
2018-01-13T17:39:12.180Z,4.24
2018-01-13T17:41:39.801Z,4.26
2018-01-13T17:44:07.425Z,4.50
2018-01-13T17:46:35.132Z,4.44
2018-01-13T17:49:02.785Z,4.32
2018-01-13T17:51:30.435Z,4.42
2018-01-13T17:53:58.079Z,4.29
2018-01-13T17:56:25.701Z,4.35
2018-01-13T17:58:53.369Z,4.42
2018-01-13T18:01:21.107Z,4.37
2018-01-13T18:03:48.780Z,4.36
2018-01-13T18:06:16.420Z,4.27
2018-01-13T18:08:44.064Z,4.19
2018-01-13T18:11:11.801Z,4.19
2018-01-13T18:13:39.537Z,4.18
2018-01-13T18:16:07.318Z,4.23
2018-01-13T18:18:34.974Z,4.17
2018-01-13T18:21:02.731Z,4.10
2018-01-13T18:23:30.386Z,4.08
2018-01-13T18:25:58.025Z,4.04
2018-01-13T18:28:25.720Z,4.06
2018-01-13T18:30:53.364Z,4.00
2018-01-13T18:33:21.000Z,4.00
2018-01-13T18:35:48.707Z,3.97
2018-01-13T18:38:16.320Z,3.98
2018-01-13T18:40:44.110Z,3.97
2018-01-13T18:43:11.787Z,3.91
2018-01-13T18:45:39.542Z,3.96
2018-01-13T18:48:07.179Z,3.91
2018-01-13T18:50:34.800Z,3.89
2018-01-13T18:53:02.437Z,3.93
2018-01-13T18:55:30.085Z,3.92
2018-01-13T18:57:57.755Z,3.91
2018-01-13T19:00:25.411Z,3.98
2018-01-13T19:02:53.071Z,4.02
2018-01-13T19:05:20.715Z,3.88
2018-01-13T19:07:48.450Z,3.93
2018-01-13T19:10:16.199Z,3.87
2018-01-13T19:12:43.856Z,3.88
2018-01-13T19:15:11.495Z,3.82
2018-01-13T19:17:39.135Z,3.83
2018-01-13T19:20:06.925Z,3.88
2018-01-13T19:22:34.578Z,3.90
2018-01-13T19:25:02.245Z,3.89
2018-01-13T19:27:29.896Z,3.81
2018-01-13T19:29:57.570Z,3.82
2018-01-13T19:32:25.475Z,3.92
2018-01-13T19:34:53.204Z,3.83
2018-01-13T19:37:20.921Z,3.78
2018-01-13T19:39:48.571Z,3.77
2018-01-13T19:42:16.226Z,3.76
2018-01-13T19:44:43.926Z,3.77
2018-01-13T19:47:11.556Z,3.82
2018-01-13T19:49:39.296Z,3.75
2018-01-13T19:52:07.037Z,3.78
2018-01-13T19:54:34.832Z,3.73
2018-01-13T19:57:02.462Z,3.81
2018-01-13T19:59:30.115Z,3.83
2018-01-13T20:01:57.931Z,3.82
2018-01-13T20:04:25.787Z,3.72
2018-01-13T20:06:53.514Z,3.66
2018-01-13T20:09:21.240Z,3.64
2018-01-13T20:11:48.935Z,3.65
2018-01-13T20:14:16.673Z,3.64
2018-01-13T20:16:44.415Z,3.66
2018-01-13T20:19:12.238Z,3.78
2018-01-13T20:21:39.881Z,3.73
2018-01-13T20:24:07.551Z,3.77
2018-01-13T20:26:35.175Z,3.59
2018-01-13T20:29:02.812Z,3.60
2018-01-13T20:31:30.485Z,3.56
2018-01-13T20:33:58.116Z,3.74
2018-01-13T20:36:25.791Z,3.61
2018-01-13T20:38:53.437Z,3.69
2018-01-13T20:41:21.064Z,3.62
2018-01-13T20:43:48.703Z,3.61
2018-01-13T20:46:16.320Z,3.64
2018-01-13T20:48:44.077Z,3.58
2018-01-13T20:51:11.845Z,3.58
2018-01-13T20:53:39.516Z,3.50
2018-01-13T20:56:07.157Z,3.60
2018-01-13T20:58:34.805Z,3.48
2018-01-13T21:01:02.527Z,3.45
2018-01-13T21:03:30.281Z,3.37
2018-01-13T21:05:58.053Z,3.35
2018-01-13T21:08:25.676Z,3.38
2018-01-13T21:10:53.413Z,3.46
2018-01-13T21:13:21.041Z,3.36
2018-01-13T21:15:48.767Z,3.33
2018-01-13T21:18:16.496Z,3.31
2018-01-13T21:20:44.127Z,3.36
2018-01-13T21:23:11.771Z,3.38
2018-01-13T21:25:39.414Z,3.39
2018-01-13T21:28:07.082Z,3.40
2018-01-13T21:30:34.719Z,3.46
2018-01-13T21:33:02.357Z,3.38
2018-01-13T21:35:30.100Z,3.40
2018-01-13T21:37:57.736Z,3.31
2018-01-13T21:40:25.477Z,3.38
2018-01-13T21:42:53.390Z,3.37
2018-01-13T21:45:21.036Z,3.27
2018-01-13T21:47:48.686Z,3.26
2018-01-13T21:50:16.366Z,3.26
2018-01-13T21:52:44.099Z,3.42
2018-01-13T21:55:11.763Z,3.31
2018-01-13T21:57:39.398Z,3.42
2018-01-13T22:00:07.059Z,3.35
2018-01-13T22:02:34.697Z,3.32
2018-01-13T22:05:02.316Z,3.56
2018-01-13T22:07:29.997Z,3.34
2018-01-13T22:09:57.641Z,3.26
2018-01-13T22:12:25.290Z,3.21
2018-01-13T22:14:52.925Z,3.29
2018-01-13T22:17:20.611Z,3.20
2018-01-13T22:19:48.275Z,3.19
2018-01-13T22:22:15.900Z,3.22
2018-01-13T22:24:43.595Z,3.22
2018-01-13T22:27:11.205Z,3.40
2018-01-13T22:29:38.908Z,3.18
2018-01-13T22:32:06.599Z,3.22
2018-01-13T22:34:34.230Z,3.19
2018-01-13T22:37:01.864Z,3.12
2018-01-13T22:39:29.538Z,3.15
2018-01-13T22:41:57.191Z,3.20
2018-01-13T22:44:24.861Z,3.17
2018-01-13T22:46:52.686Z,3.28
2018-01-13T22:49:20.347Z,3.12
2018-01-13T22:51:48.072Z,3.12
2018-01-13T22:54:15.772Z,3.09
2018-01-13T22:56:43.413Z,3.20
2018-01-13T22:59:11.010Z,3.08
2018-01-13T23:01:38.652Z,3.05
2018-01-13T23:04:06.308Z,3.03
2018-01-13T23:06:33.957Z,3.09
2018-01-13T23:09:01.578Z,3.03
2018-01-13T23:11:29.205Z,3.13
2018-01-13T23:13:56.871Z,3.06
2018-01-13T23:16:24.593Z,2.96
2018-01-13T23:18:52.220Z,3.01
2018-01-13T23:21:19.847Z,2.91
2018-01-13T23:23:47.523Z,2.95
2018-01-13T23:26:15.136Z,2.86
2018-01-13T23:28:42.780Z,2.89
2018-01-13T23:31:10.461Z,2.85
2018-01-13T23:33:38.093Z,2.83
2018-01-13T23:36:05.751Z,2.79
2018-01-13T23:38:33.441Z,2.79
2018-01-13T23:41:01.066Z,2.79
2018-01-13T23:43:28.672Z,2.82
2018-01-13T23:45:56.427Z,2.77
2018-01-13T23:48:24.031Z,2.76
2018-01-13T23:50:51.662Z,2.80
2018-01-13T23:53:19.318Z,2.86
2018-01-13T23:55:46.954Z,2.78
2018-01-13T23:58:14.569Z,2.79
